Time;durP1;ratioP1;P1;durP2;ratioP2;P2;SDS_P1;SDS_P2;PMS_P1;PMS_P2;Temp;Humidity;BMP_temperature;BMP_pressure;BME280_temperature;BME280_humidity;BME280_pressure;Samples;Min_cycle;Max_cycle;Signal;HPM_P1;HPM_P2
2022/11/11 00:00:29;;;;;;;5.87;1.93;;;8.10;82.10;;;;;;5050157;28;20248;-84
2022/11/11 00:02:56;;;;;;;5.93;2.00;;;8.10;64.40;;;;;;5051581;28;20189;-85
2022/11/11 00:05:22;;;;;;;4.90;2.20;;;8.10;77.50;;;;;;5051030;28;20202;-79
2022/11/11 00:07:48;;;;;;;6.73;2.07;;;8.10;64.10;;;;;;5049832;28;20606;-84
2022/11/11 00:10:13;;;;;;;6.47;2.23;;;8.90;61.80;;;;;;5045474;28;20192;-80
2022/11/11 00:12:39;;;;;;;5.80;1.80;;;8.10;57.10;;;;;;5045216;28;20557;-83
2022/11/11 00:15:06;;;;;;;4.77;2.13;;;8.20;54.40;;;;;;5044903;28;20202;-83
2022/11/11 00:25:52;;;;;;;4.13;1.73;;;8.70;7.20;;;;;;5047934;28;20232;-82
2022/11/11 00:28:17;;;;;;;5.37;1.90;;;8.80;1.00;;;;;;5046429;28;20574;-80
2022/11/11 00:30:43;;;;;;;5.20;1.67;;;8.80;1.00;;;;;;5046018;28;20200;-79
2022/11/11 00:33:08;;;;;;;5.13;1.93;;;9.20;1.00;;;;;;5045388;28;20953;-80
2022/11/11 00:35:52;;;;;;;3.07;1.50;;;8.90;1.00;;;;;;5043305;28;20194;-83
2022/11/11 00:39:00;;;;;;;4.53;1.73;;;8.90;1.00;;;;;;5044133;28;20202;-80
2022/11/11 00:41:07;;;;;;;4.13;1.53;;;8.90;1.00;;;;;;5041019;28;20189;-80
2022/11/11 00:43:32;;;;;;;4.33;1.50;;;8.60;1.00;;;;;;5044212;28;20174;-79
2022/11/11 00:51:27;;;;;;;3.57;1.47;;;8.50;1.00;;;;;;5045633;28;20189;-79
2022/11/11 00:53:53;;;;;;;4.90;1.77;;;8.30;5.20;;;;;;5046005;28;20201;-81
2022/11/11 00:56:22;;;;;;;3.30;1.50;;;8.20;7.10;;;;;;5045644;28;20198;-80
2022/11/11 00:58:47;;;;;;;4.03;1.90;;;8.30;11.40;;;;;;5045679;28;21368;-79
2022/11/11 01:01:13;;;;;;;4.63;1.77;;;8.20;20.90;;;;;;5045293;28;20210;-79
2022/11/11 01:03:39;;;;;;;3.30;1.70;;;8.40;29.40;;;;;;5044090;28;20297;-80
2022/11/11 01:06:05;;;;;;;5.43;1.80;;;8.10;39.10;;;;;;5044322;28;20225;-79
2022/11/11 01:08:32;;;;;;;3.93;1.63;;;8.00;39.90;;;;;;5045802;28;20205;-77
2022/11/11 01:10:58;;;;;;;3.43;1.53;;;8.70;49.10;;;;;;5044506;28;20278;-79
2022/11/11 01:13:29;;;;;;;4.27;1.93;;;8.30;62.10;;;;;;5045391;28;20178;-80
2022/11/11 01:16:04;;;;;;;5.83;1.73;;;8.30;79.50;;;;;;5045740;28;20224;-79
2022/11/11 01:18:30;;;;;;;3.93;1.60;;;7.80;77.30;;;;;;5044065;28;20259;-81
2022/11/11 01:21:01;;;;;;;4.77;1.70;;;7.80;80.30;;;;;;5044137;28;20265;-81
2022/11/11 01:23:28;;;;;;;5.03;1.70;;;7.80;68.70;;;;;;5046989;28;20187;-79
2022/11/11 01:25:54;;;;;;;4.17;1.77;;;7.90;90.90;;;;;;5048390;28;20575;-82
2022/11/11 01:28:19;;;;;;;6.00;1.87;;;8.30;70.30;;;;;;5048574;28;20182;-80
2022/11/11 01:30:45;;;;;;;3.47;1.30;;;7.80;70.60;;;;;;5048773;28;20221;-82
2022/11/11 01:33:11;;;;;;;7.17;1.93;;;7.70;72.20;;;;;;5049330;28;20182;-81
2022/11/11 01:35:41;;;;;;;4.10;1.90;;;7.70;73.80;;;;;;5048472;28;20206;-81
2022/11/11 01:38:08;;;;;;;4.07;1.80;;;7.80;57.20;;;;;;5047820;28;20209;-85
2022/11/11 01:40:42;;;;;;;4.40;1.77;;;8.50;49.30;;;;;;5064601;28;20178;-78
2022/11/11 01:43:15;;;;;;;3.17;1.50;;;8.10;37.80;;;;;;5048198;28;20255;-80
2022/11/11 01:45:44;;;;;;;6.83;2.17;;;8.20;37.10;;;;;;5048179;28;20280;-78
2022/11/11 01:51:39;;;;;;;4.53;1.50;;;7.70;46.20;;;;;;5050004;28;20192;-83
2022/11/11 01:54:16;;;;;;;2.43;1.20;;;8.00;33.10;;;;;;5048595;28;20182;-81
2022/11/11 01:56:45;;;;;;;3.60;1.80;;;7.90;33.40;;;;;;5047995;28;20182;-80
2022/11/11 01:59:15;;;;;;;3.77;1.93;;;8.30;16.30;;;;;;5048040;28;20206;-81
2022/11/11 02:01:42;;;;;;;4.50;1.57;;;8.20;4.00;;;;;;5050112;28;20240;-84
2022/11/11 02:06:57;;;;;;;3.50;1.60;;;8.20;1.00;;;;;;5050876;28;20299;-82
2022/11/11 02:09:24;;;;;;;5.33;1.70;;;8.10;1.00;;;;;;5049026;28;20205;-81
2022/11/11 02:14:44;;;;;;;3.20;1.27;;;8.00;1.00;;;;;;5050589;28;20290;-79
2022/11/11 02:17:13;;;;;;;2.70;1.40;;;7.90;3.10;;;;;;5048575;28;20186;-81
2022/11/11 02:19:49;;;;;;;3.73;1.70;;;7.90;8.20;;;;;;5050796;28;20202;-83
2022/11/11 02:22:33;;;;;;;3.60;1.80;;;7.80;16.90;;;;;;5051360;28;20182;-79
2022/11/11 02:25:02;;;;;;;4.17;1.60;;;7.80;27.70;;;;;;5066240;28;20947;-84
2022/11/11 02:27:30;;;;;;;4.07;1.60;;;7.60;25.00;;;;;;5049592;28;20214;-82
2022/11/11 02:29:59;;;;;;;4.43;1.30;;;7.40;35.30;;;;;;5066452;28;20186;-82
2022/11/11 02:32:24;;;;;;;3.37;1.70;;;7.50;45.70;;;;;;5051208;28;20197;-80
2022/11/11 02:34:50;;;;;;;4.23;1.60;;;8.30;62.90;;;;;;5048775;28;20214;-82
2022/11/11 02:37:20;;;;;;;4.83;1.93;;;7.50;82.80;;;;;;5049994;28;20191;-83
2022/11/11 02:39:48;;;;;;;5.43;1.50;;;7.30;72.50;;;;;;5049912;28;20225;-83
2022/11/11 02:42:17;;;;;;;2.90;1.50;;;7.30;78.50;;;;;;5051219;28;20186;-80
2022/11/11 02:44:43;;;;;;;6.63;1.60;;;7.30;81.10;;;;;;5052310;28;20242;-82
2022/11/11 02:47:08;;;;;;;2.93;1.50;;;7.10;98.90;;;;;;5052456;28;20202;-83
2022/11/11 02:49:34;;;;;;;3.03;1.93;;;7.40;90.30;;;;;;5051807;28;20566;-84
2022/11/11 02:51:59;;;;;;;4.57;1.73;;;7.20;88.60;;;;;;5052590;28;20198;-83
2022/11/11 02:54:25;;;;;;;3.80;1.47;;;7.10;97.90;;;;;;5051241;28;20210;-78
2022/11/11 02:57:09;;;;;;;2.67;1.50;;;7.10;98.80;;;;;;5051186;28;20247;-82
2022/11/11 02:59:39;;;;;;;4.63;1.20;;;7.60;80.80;;;;;;5055015;28;20232;-79
2022/11/11 03:02:06;;;;;;;2.50;1.60;;;6.80;9.50;;;;;;5050694;28;20640;-78
2022/11/11 03:04:32;;;;;;;2.67;1.40;;;6.70;1.00;;;;;;5045536;28;20198;-81
2022/11/11 03:06:58;;;;;;;8.20;1.63;;;7.30;3.30;;;;;;5045371;28;20186;-79
2022/11/11 03:09:24;;;;;;;3.33;1.40;;;6.70;4.50;;;;;;5046872;28;20729;-81
2022/11/11 03:11:49;;;;;;;4.43;1.77;;;6.50;23.50;;;;;;5045414;28;20193;-80
2022/11/11 03:14:15;;;;;;;4.47;1.50;;;7.30;22.50;;;;;;5045610;28;20201;-80
2022/11/11 03:19:25;;;;;;;3.43;1.47;;;7.00;39.60;;;;;;5046465;28;20224;-79
2022/11/11 03:21:50;;;;;;;4.07;1.60;;;6.30;27.30;;;;;;5045289;28;20674;-79
2022/11/11 03:24:16;;;;;;;4.20;1.70;;;6.30;28.90;;;;;;5045067;28;20205;-80
2022/11/11 03:26:41;;;;;;;3.93;1.80;;;6.30;43.10;;;;;;5047051;28;20273;-80
2022/11/11 03:29:07;;;;;;;3.77;1.63;;;5.90;89.20;;;;;;5047370;28;20198;-81
2022/11/11 03:31:33;;;;;;;2.20;1.50;;;7.10;68.30;;;;;;5047820;28;20193;-81
2022/11/11 03:34:17;;;;;;;4.57;1.73;;;6.00;91.90;;;;;;5045038;28;20194;-78
2022/11/11 03:39:28;;;;;;;4.10;1.50;;;5.90;99.90;;;;;;5046152;28;20217;-79
2022/11/11 03:41:55;;;;;;;3.50;1.60;;;5.80;99.90;;;;;;5046401;28;20277;-80
2022/11/11 03:44:20;;;;;;;3.20;1.50;;;5.40;99.90;;;;;;5045755;28;20213;-80
2022/11/11 03:46:46;;;;;;;6.33;1.80;;;6.10;99.90;;;;;;5044821;28;20280;-79
2022/11/11 03:49:11;;;;;;;5.90;1.43;;;6.40;99.90;;;;;;5046448;28;20193;-82
2022/11/11 03:51:37;;;;;;;4.30;1.73;;;5.60;99.90;;;;;;5046189;28;20186;-79
2022/11/11 03:54:03;;;;;;;4.33;1.60;;;5.30;99.90;;;;;;5045056;28;20186;-80
2022/11/11 03:56:28;;;;;;;3.37;1.50;;;5.30;99.90;;;;;;5046454;28;20615;-79
2022/11/11 03:58:54;;;;;;;3.17;1.20;;;6.30;99.90;;;;;;5046396;28;20213;-82
2022/11/11 04:12:16;;;;;;;4.87;1.50;;;7.20;99.90;;;;;;5047073;28;20204;-83
2022/11/11 04:17:26;;;;;;;4.83;1.77;;;7.40;47.50;;;;;;5046120;28;20238;-79
2022/11/11 04:22:41;;;;;;;5.00;1.70;;;7.30;14.70;;;;;;5046454;28;20603;-79
2022/11/11 04:29:27;;;;;;;3.07;1.50;;;7.60;1.00;;;;;;5045806;28;20239;-81
2022/11/11 04:30:36;;;;;;;5.50;1.70;;;7.30;1.00;;;;;;5046442;28;20551;-81
2022/11/11 04:33:02;;;;;;;3.43;1.13;;;8.50;1.00;;;;;;5045934;28;20182;-79
2022/11/11 04:35:27;;;;;;;2.90;1.40;;;7.70;1.00;;;;;;5046932;28;20230;-82
2022/11/11 04:41:02;;;;;;;3.67;1.63;;;7.60;1.00;;;;;;5044904;28;20214;-79
2022/11/11 04:43:22;;;;;;;3.27;1.20;;;8.70;1.00;;;;;;5047104;28;20197;-78
2022/11/11 04:45:48;;;;;;;3.60;1.23;;;7.80;1.00;;;;;;5047939;28;20240;-79
2022/11/11 04:48:16;;;;;;;3.20;1.30;;;8.10;1.00;;;;;;5044146;28;20206;-83
2022/11/11 04:50:43;;;;;;;7.50;4.17;;;8.80;1.00;;;;;;5046669;28;20182;-81
2022/11/11 04:53:11;;;;;;;13.20;6.90;;;8.70;1.00;;;;;;5046877;28;20243;-81
2022/11/11 04:58:25;;;;;;;8.37;3.83;;;8.60;1.00;;;;;;5048834;28;20656;-81
2022/11/11 05:00:50;;;;;;;13.50;6.73;;;8.30;1.00;;;;;;5049811;28;20586;-79
2022/11/11 05:03:19;;;;;;;15.37;8.10;;;8.40;1.00;;;;;;5049621;28;20178;-80
2022/11/11 05:09:00;;;;;;;19.50;8.80;;;8.10;1.00;;;;;;5052209;28;20232;-84
2022/11/11 05:11:31;;;;;;;18.97;9.73;;;8.60;1.00;;;;;;5050423;28;20212;-81
2022/11/11 05:22:22;;;;;;;19.60;9.97;;;9.30;1.00;;;;;;5052550;28;20236;-81
2022/11/11 05:25:32;;;;;;;10.03;6.33;;;8.80;1.00;;;;;;5051502;28;20232;-78
2022/11/11 05:27:37;;;;;;;10.73;5.00;;;8.90;1.00;;;;;;5050303;28;20222;-79
2022/11/11 05:30:04;;;;;;;11.23;6.13;;;9.20;1.00;;;;;;5052277;28;20190;-78
2022/11/11 05:32:30;;;;;;;6.20;3.83;;;8.90;1.00;;;;;;5051238;28;20251;-84
2022/11/11 05:34:55;;;;;;;5.30;2.80;;;9.00;1.00;;;;;;5052725;28;20566;-84
2022/11/11 05:37:21;;;;;;;4.00;2.17;;;8.30;1.00;;;;;;5051526;28;20217;-81
2022/11/11 05:39:47;;;;;;;3.47;2.10;;;9.10;1.00;;;;;;5052695;28;20241;-82
2022/11/11 05:42:13;;;;;;;4.30;3.20;;;9.10;1.00;;;;;;5053281;28;20186;-84
2022/11/11 05:44:38;;;;;;;7.00;3.23;;;8.30;1.00;;;;;;5053457;28;20263;-82
2022/11/11 05:47:04;;;;;;;4.73;2.90;;;8.50;1.00;;;;;;5053193;28;20265;-80
2022/11/11 05:49:30;;;;;;;5.87;3.30;;;8.30;1.00;;;;;;5054016;28;20292;-85
2022/11/11 05:51:55;;;;;;;6.20;3.40;;;8.40;1.00;;;;;;5054392;28;21043;-82
2022/11/11 05:54:22;;;;;;;5.40;3.07;;;8.00;1.00;;;;;;5054874;28;20213;-82
2022/11/11 05:56:47;;;;;;;4.83;3.70;;;8.60;1.00;;;;;;5052229;28;20650;-81
2022/11/11 05:59:13;;;;;;;6.53;3.70;;;8.30;1.00;;;;;;5049731;28;20303;-85
2022/11/11 06:01:39;;;;;;;7.80;5.73;;;7.80;1.00;;;;;;5048195;28;20190;-82
2022/11/11 06:04:05;;;;;;;6.20;4.87;;;8.10;1.00;;;;;;5047742;28;20195;-79
2022/11/11 06:06:31;;;;;;;5.27;3.30;;;8.10;1.00;;;;;;5048543;28;20184;-80
2022/11/11 06:08:57;;;;;;;5.30;3.40;;;8.00;1.00;;;;;;5047314;28;20564;-78
2022/11/11 06:11:23;;;;;;;5.97;2.93;;;8.30;1.00;;;;;;5047458;28;20186;-84
2022/11/11 06:13:49;;;;;;;2.83;2.10;;;8.60;1.00;;;;;;5046613;28;20289;-79
2022/11/11 06:16:15;;;;;;;1.93;1.73;;;7.30;1.00;;;;;;5047401;28;20732;-82
2022/11/11 06:18:41;;;;;;;4.97;3.20;;;7.80;1.00;;;;;;5046906;28;20225;-82
2022/11/11 06:21:06;;;;;;;4.77;3.73;;;8.80;1.00;;;;;;5049011;28;20554;-82
2022/11/11 06:23:32;;;;;;;6.33;3.17;;;7.20;1.00;;;;;;5048573;28;20182;-84
2022/11/11 06:26:13;;;;;;;4.33;3.03;;;7.80;1.00;;;;;;5047360;28;20584;-82
2022/11/11 06:28:39;;;;;;;4.17;2.97;;;7.10;1.00;;;;;;5047349;28;20609;-82
2022/11/11 06:31:06;;;;;;;3.57;2.70;;;7.60;1.00;;;;;;5047543;28;20214;-80
2022/11/11 06:33:34;;;;;;;5.53;3.00;;;6.80;1.00;;;;;;5047114;28;20277;-82
2022/11/11 06:36:00;;;;;;;5.63;2.87;;;7.60;1.00;;;;;;5048642;28;20214;-81
2022/11/11 06:38:26;;;;;;;4.80;3.10;;;8.30;1.00;;;;;;5044871;28;20201;-81
2022/11/11 06:40:52;;;;;;;3.93;2.40;;;7.20;1.00;;;;;;5063168;28;20179;-83
2022/11/11 06:43:17;;;;;;;3.27;2.00;;;8.30;1.00;;;;;;5046137;28;20181;-81
2022/11/11 06:45:44;;;;;;;2.83;1.90;;;7.30;8.30;;;;;;5047470;28;20234;-79
2022/11/11 06:48:10;;;;;;;3.93;2.20;;;8.00;1.00;;;;;;5045002;28;21268;-79
2022/11/11 06:50:36;;;;;;;2.70;2.10;;;6.90;1.00;;;;;;5045455;28;20198;-83
2022/11/11 06:53:14;;;;;;;4.97;2.10;;;7.10;1.00;;;;;;5047407;28;20183;-79
2022/11/11 06:55:40;;;;;;;3.87;2.00;;;7.50;1.00;;;;;;5046605;28;20258;-83
2022/11/11 06:58:11;;;;;;;3.60;2.00;;;6.90;1.00;;;;;;5046158;28;20271;-83
2022/11/11 07:00:37;;;;;;;3.80;2.03;;;7.70;1.00;;;;;;5048106;28;20837;-83
2022/11/11 07:03:04;;;;;;;4.73;2.00;;;6.90;1.00;;;;;;5048373;28;20182;-84
2022/11/11 07:05:30;;;;;;;3.23;1.77;;;7.00;1.00;;;;;;5063469;28;20769;-83
2022/11/11 07:08:00;;;;;;;3.83;1.90;;;7.80;1.00;;;;;;5046952;28;20189;-81
2022/11/11 07:10:25;;;;;;;3.57;1.70;;;8.20;1.00;;;;;;5064285;28;20665;-81
2022/11/11 07:12:51;;;;;;;4.27;1.83;;;8.30;1.00;;;;;;5047373;28;20193;-79
2022/11/11 07:15:17;;;;;;;2.83;1.87;;;7.70;1.60;;;;;;5047043;28;20210;-84
2022/11/11 07:17:43;;;;;;;5.17;1.83;;;7.20;1.60;;;;;;5043937;28;20178;-79
2022/11/11 07:20:09;;;;;;;4.83;2.27;;;7.40;6.80;;;;;;5045010;28;20208;-84
2022/11/11 07:22:35;;;;;;;3.30;2.10;;;7.20;9.50;;;;;;5044283;28;20353;-81
2022/11/11 07:25:02;;;;;;;5.00;2.10;;;7.40;8.20;;;;;;5044798;28;20213;-83
2022/11/11 07:27:27;;;;;;;3.70;1.90;;;8.10;17.70;;;;;;5044656;28;20187;-84
2022/11/11 07:29:53;;;;;;;3.00;2.30;;;6.60;9.30;;;;;;5046324;28;20198;-78
2022/11/11 07:32:18;;;;;;;5.73;3.23;;;8.50;13.20;;;;;;5046794;28;20198;-82
2022/11/11 07:34:44;;;;;;;13.00;6.67;;;8.70;1.00;;;;;;5045740;28;20591;-83
2022/11/11 07:37:09;;;;;;;9.80;5.40;;;8.00;1.00;;;;;;5044365;28;20190;-81
2022/11/11 07:39:35;;;;;;;12.13;6.37;;;8.20;1.00;;;;;;5046065;28;20271;-79
2022/11/11 07:42:01;;;;;;;5.30;2.50;;;8.10;1.00;;;;;;5049569;28;20218;-80
2022/11/11 07:44:26;;;;;;;5.30;3.47;;;8.50;1.00;;;;;;5048737;28;20256;-83
2022/11/11 07:46:52;;;;;;;8.57;4.23;;;8.60;1.00;;;;;;5049934;28;20232;-82
2022/11/11 07:49:18;;;;;;;8.20;3.90;;;8.30;1.00;;;;;;5047531;28;20186;-81
2022/11/11 07:51:43;;;;;;;8.50;5.37;;;8.70;1.00;;;;;;5048693;28;20564;-81
2022/11/11 07:54:09;;;;;;;8.60;5.50;;;9.30;1.00;;;;;;5046331;28;20369;-83
2022/11/11 07:56:34;;;;;;;8.97;4.90;;;9.20;1.00;;;;;;5046443;28;20315;-81
2022/11/11 07:59:00;;;;;;;9.03;4.17;;;9.10;1.00;;;;;;5047494;28;20777;-84
2022/11/11 08:01:26;;;;;;;3.80;2.47;;;9.40;1.00;;;;;;5046514;28;20682;-83
2022/11/11 08:03:51;;;;;;;4.47;3.00;;;10.20;1.00;;;;;;5046441;28;20194;-81
2022/11/11 08:06:18;;;;;;;6.90;4.50;;;10.00;1.00;;;;;;5046936;28;20190;-84
2022/11/11 08:08:44;;;;;;;8.70;5.53;;;9.70;1.00;;;;;;5047959;28;20559;-83
2022/11/11 08:11:10;;;;;;;7.43;4.50;;;9.80;1.00;;;;;;5048267;28;20201;-81
2022/11/11 08:13:42;;;;;;;8.17;4.80;;;10.00;1.00;;;;;;5047769;28;20185;-83
2022/11/11 08:16:13;;;;;;;4.97;3.53;;;10.40;1.00;;;;;;5047239;28;20214;-81
2022/11/11 08:18:40;;;;;;;8.40;4.17;;;10.10;1.00;;;;;;5048351;28;20210;-83
2022/11/11 08:21:06;;;;;;;4.30;3.20;;;10.00;1.00;;;;;;5048979;28;20198;-82
2022/11/11 08:23:32;;;;;;;5.70;3.37;;;10.20;1.00;;;;;;5047031;28;20328;-83
2022/11/11 08:26:03;;;;;;;4.43;2.60;;;10.20;1.00;;;;;;5047331;28;20583;-84
2022/11/11 08:28:31;;;;;;;6.33;3.40;;;10.20;1.00;;;;;;5048502;28;20276;-82
2022/11/11 08:30:58;;;;;;;9.13;5.13;;;10.40;1.00;;;;;;5047571;28;20205;-84
2022/11/11 08:33:24;;;;;;;8.03;3.27;;;10.30;1.00;;;;;;5046614;28;20206;-82
2022/11/11 08:35:53;;;;;;;4.73;2.40;;;10.50;1.00;;;;;;5048201;28;20296;-82
2022/11/11 08:38:25;;;;;;;3.87;1.90;;;10.70;1.00;;;;;;5048590;28;20206;-80
2022/11/11 08:40:51;;;;;;;3.63;1.90;;;10.80;1.00;;;;;;5048395;28;20182;-82
2022/11/11 08:43:17;;;;;;;3.30;1.60;;;11.10;1.00;;;;;;5047360;28;20175;-83
2022/11/11 08:45:43;;;;;;;2.73;1.77;;;10.90;1.00;;;;;;5061848;28;20296;-81
2022/11/11 08:48:09;;;;;;;5.23;1.73;;;11.00;1.00;;;;;;5048233;28;20209;-83
2022/11/11 08:50:39;;;;;;;2.40;1.67;;;11.00;1.00;;;;;;5049100;28;20186;-84
2022/11/11 08:53:08;;;;;;;3.00;1.80;;;10.90;1.00;;;;;;5045536;28;20235;-80
2022/11/11 08:55:35;;;;;;;2.80;1.70;;;11.00;1.00;;;;;;5044151;28;20332;-80
2022/11/11 08:58:05;;;;;;;3.40;1.90;;;11.50;1.00;;;;;;5044781;28;20660;-80
2022/11/11 09:00:30;;;;;;;2.37;1.53;;;11.20;1.00;;;;;;5061750;28;20651;-80
2022/11/11 09:03:04;;;;;;;2.67;1.70;;;11.30;1.00;;;;;;5043232;28;20185;-82
2022/11/11 09:05:29;;;;;;;2.83;1.80;;;11.40;1.00;;;;;;5042833;28;20229;-81
2022/11/11 09:07:55;;;;;;;3.13;2.10;;;11.50;1.00;;;;;;5042466;28;20224;-83
2022/11/11 09:10:21;;;;;;;1.53;1.27;;;11.60;1.00;;;;;;5039663;28;20561;-80
2022/11/11 09:12:46;;;;;;;2.25;1.10;;;11.70;1.00;;;;;;5042593;28;20197;-79
2022/11/11 09:15:12;;;;;;;3.28;1.40;;;11.80;1.00;;;;;;5041948;28;20727;-80
2022/11/11 09:17:38;;;;;;;1.58;1.40;;;12.00;1.00;;;;;;5062720;28;20178;-81
2022/11/11 09:20:04;;;;;;;2.15;1.10;;;12.00;1.00;;;;;;5046562;28;21183;-81
2022/11/11 09:22:29;;;;;;;4.18;1.23;;;12.10;1.00;;;;;;5045547;28;20186;-79
2022/11/11 09:24:55;;;;;;;1.80;0.98;;;12.20;1.00;;;;;;5047065;28;20208;-78
2022/11/11 09:27:21;;;;;;;1.00;0.80;;;12.50;1.00;;;;;;5046436;28;20216;-79
2022/11/11 09:29:47;;;;;;;1.80;0.80;;;12.30;1.00;;;;;;5046765;28;21280;-81
2022/11/11 09:32:12;;;;;;;2.53;1.13;;;12.40;1.00;;;;;;5047247;28;20182;-79
2022/11/11 09:34:38;;;;;;;2.35;1.00;;;12.40;1.00;;;;;;5046422;28;20283;-81
2022/11/11 09:37:04;;;;;;;3.30;0.95;;;12.40;1.00;;;;;;5044428;28;20199;-84
2022/11/11 09:39:29;;;;;;;2.75;1.00;;;12.30;1.00;;;;;;5042225;28;20353;-83
2022/11/11 09:42:24;;;;;;;2.65;1.00;;;12.30;1.00;;;;;;5043452;28;20558;-82
2022/11/11 09:45:07;;;;;;;2.22;1.08;;;12.30;1.00;;;;;;5045664;28;20296;-83
2022/11/11 09:47:56;;;;;;;1.23;1.00;;;12.40;1.00;;;;;;5064793;28;20186;-83
2022/11/11 09:50:24;;;;;;;1.98;0.88;;;12.40;1.00;;;;;;5047010;28;20554;-84
2022/11/11 09:53:00;;;;;;;2.20;1.05;;;12.20;1.00;;;;;;5048276;28;20190;-82
2022/11/11 09:55:28;;;;;;;2.75;1.27;;;12.50;1.00;;;;;;5046846;28;20277;-82
2022/11/11 09:57:59;;;;;;;1.55;1.02;;;12.50;1.00;;;;;;5048788;28;20206;-82
2022/11/11 10:00:36;;;;;;;2.60;0.90;;;12.50;1.00;;;;;;5048308;28;20539;-82
2022/11/11 10:03:14;;;;;;;3.08;1.27;;;12.60;1.00;;;;;;5049320;28;20221;-82
2022/11/11 10:05:46;;;;;;;2.25;1.17;;;12.60;1.00;;;;;;5050399;28;20215;-81
2022/11/11 10:08:19;;;;;;;2.05;0.90;;;12.60;1.00;;;;;;5047895;28;20178;-79
2022/11/11 10:10:46;;;;;;;1.98;1.10;;;12.60;1.00;;;;;;5049969;28;20640;-80
2022/11/11 10:13:15;;;;;;;3.08;1.42;;;12.70;1.00;;;;;;5048434;28;20174;-82
2022/11/11 10:15:57;;;;;;;0.95;0.85;;;12.80;1.00;;;;;;5049422;28;20229;-81
2022/11/11 10:18:49;;;;;;;1.35;0.93;;;12.90;1.00;;;;;;5047083;28;20210;-81
2022/11/11 10:21:19;;;;;;;2.50;1.30;;;12.90;1.00;;;;;;5020694;28;20186;-80
2022/11/11 10:23:48;;;;;;;2.03;1.13;;;13.00;1.00;;;;;;5049347;28;20244;-81
2022/11/11 10:26:28;;;;;;;3.55;1.77;;;13.10;1.00;;;;;;5048333;28;20201;-81
2022/11/11 10:28:54;;;;;;;2.78;1.20;;;13.20;1.00;;;;;;5047769;28;20182;-82
2022/11/11 10:31:22;;;;;;;1.73;1.05;;;13.20;1.00;;;;;;5047055;28;20196;-82
2022/11/11 10:34:11;;;;;;;1.45;1.17;;;13.20;1.00;;;;;;5048226;28;20348;-80
2022/11/11 10:36:50;;;;;;;3.30;1.10;;;13.30;1.00;;;;;;5037888;28;20291;-77
2022/11/11 10:39:47;;;;;;;2.75;1.88;;;13.30;1.00;;;;;;5050542;28;20261;-80
2022/11/11 10:42:16;;;;;;;1.67;1.20;;;13.40;1.00;;;;;;5062035;28;20250;-78
2022/11/11 10:44:42;;;;;;;1.77;1.20;;;13.50;1.00;;;;;;5044369;28;20202;-80
2022/11/11 10:47:51;;;;;;;2.65;1.42;;;13.60;1.00;;;;;;5044892;28;20193;-78
2022/11/11 10:50:30;;;;;;;3.20;1.00;;;13.70;1.00;;;;;;5050168;28;20187;-78
2022/11/11 10:53:26;;;;;;;2.88;1.00;;;13.60;1.00;;;;;;5051161;28;20186;-81
2022/11/11 10:56:08;;;;;;;1.98;1.30;;;13.50;1.00;;;;;;5047879;28;20695;-81
2022/11/11 10:58:40;;;;;;;2.03;1.38;;;13.20;1.00;;;;;;5048243;28;20268;-81
2022/11/11 11:01:09;;;;;;;2.22;1.23;;;13.50;1.00;;;;;;5050272;28;20182;-80
2022/11/11 11:04:03;;;;;;;2.05;1.38;;;13.60;1.00;;;;;;5049657;28;20174;-79
2022/11/11 11:06:33;;;;;;;3.00;1.17;;;13.70;1.00;;;;;;5065132;28;20182;-78
2022/11/11 11:09:11;;;;;;;1.30;1.08;;;13.70;1.00;;;;;;5049467;28;20174;-81
2022/11/11 11:11:49;;;;;;;1.77;1.23;;;13.90;1.00;;;;;;5050096;28;20231;-80
2022/11/11 11:14:23;;;;;;;2.63;1.20;;;13.80;1.00;;;;;;5049172;28;20702;-81
2022/11/11 11:16:54;;;;;;;1.48;1.17;;;13.90;1.00;;;;;;5050195;28;20274;-80
2022/11/11 11:19:27;;;;;;;1.98;1.15;;;13.90;1.00;;;;;;5048339;28;20225;-81
2022/11/11 11:22:01;;;;;;;1.50;1.10;;;13.90;1.00;;;;;;5048368;28;20214;-81
2022/11/11 11:24:36;;;;;;;2.03;1.27;;;13.80;1.00;;;;;;5049089;28;20261;-81
2022/11/11 11:27:05;;;;;;;5.05;2.58;;;13.80;1.00;;;;;;5048025;28;20185;-80
2022/11/11 11:29:41;;;;;;;5.65;4.40;;;13.80;1.00;;;;;;5048618;28;20186;-79
2022/11/11 11:32:28;;;;;;;3.45;2.42;;;13.80;1.00;;;;;;5048455;28;20298;-80
2022/11/11 11:34:55;;;;;;;6.07;4.30;;;13.80;1.00;;;;;;5048784;28;20820;-80
2022/11/11 11:37:23;;;;;;;6.78;4.80;;;13.90;1.00;;;;;;5047390;28;20189;-80
2022/11/11 11:40:06;;;;;;;6.43;4.15;;;13.80;1.00;;;;;;5047768;28;20217;-81
2022/11/11 11:42:36;;;;;;;16.20;8.23;;;13.80;1.00;;;;;;5048344;28;20186;-80
2022/11/11 11:45:19;;;;;;;8.43;5.28;;;13.80;1.00;;;;;;5048602;28;20816;-82
2022/11/11 11:47:50;;;;;;;22.38;12.18;;;13.90;1.00;;;;;;5048442;28;20186;-80
2022/11/11 11:50:50;;;;;;;16.85;9.52;;;13.90;1.00;;;;;;5049957;28;20209;-78
2022/11/11 11:53:25;;;;;;;15.05;7.53;;;13.90;1.00;;;;;;5043688;28;20217;-81
2022/11/11 11:55:55;;;;;;;9.32;5.47;;;13.90;1.00;;;;;;5050801;28;20205;-78
2022/11/11 11:58:49;;;;;;;4.63;3.67;;;13.90;1.00;;;;;;5049477;28;20217;-81
2022/11/11 12:01:45;;;;;;;2.88;1.60;;;14.00;1.00;;;;;;5049785;28;20186;-81
2022/11/11 12:04:49;;;;;;;2.60;1.95;;;14.00;1.00;;;;;;5045071;28;20617;-79
2022/11/11 12:07:21;;;;;;;2.83;1.60;;;14.10;1.00;;;;;;5047378;28;20277;-80
2022/11/11 12:10:08;;;;;;;2.85;1.63;;;14.10;1.00;;;;;;5050539;28;20284;-79
2022/11/11 12:12:52;;;;;;;2.40;1.75;;;14.00;1.00;;;;;;5062682;28;20228;-81
2022/11/11 12:15:32;;;;;;;2.13;1.50;;;14.10;1.00;;;;;;5063904;28;20208;-79
2022/11/11 12:18:25;;;;;;;1.55;0.95;;;14.00;1.00;;;;;;5052589;28;20185;-79
2022/11/11 12:21:18;;;;;;;3.55;1.52;;;14.00;1.00;;;;;;5048963;28;20217;-78
2022/11/11 12:24:12;;;;;;;1.83;1.40;;;14.00;1.00;;;;;;5048149;28;20213;-79
2022/11/11 12:26:57;;;;;;;1.60;1.20;;;14.10;1.00;;;;;;5048283;28;20181;-81
2022/11/11 12:30:09;;;;;;;1.52;1.30;;;14.10;1.00;;;;;;5065442;28;20186;-81
2022/11/11 12:33:00;;;;;;;2.40;1.20;;;14.00;1.00;;;;;;5045230;28;20273;-80
2022/11/11 12:35:31;;;;;;;1.83;1.05;;;14.10;1.00;;;;;;5050400;28;20275;-79
2022/11/11 12:38:11;;;;;;;2.65;1.00;;;14.10;1.00;;;;;;5051023;28;20182;-80
2022/11/11 12:40:43;;;;;;;1.15;1.00;;;14.10;1.00;;;;;;5063564;28;20170;-80
2022/11/11 12:43:19;;;;;;;3.22;0.90;;;14.20;1.00;;;;;;5052804;28;20186;-79
2022/11/11 12:45:56;;;;;;;2.58;1.20;;;14.20;1.00;;;;;;5054378;28;20201;-79
2022/11/11 12:48:31;;;;;;;3.58;1.25;;;14.30;1.00;;;;;;5052349;28;20222;-78
2022/11/11 12:51:02;;;;;;;1.98;1.00;;;14.20;1.00;;;;;;5047382;28;20205;-80
2022/11/11 12:54:00;;;;;;;4.30;1.33;;;14.20;1.00;;;;;;5048649;28;20186;-80
2022/11/11 12:56:44;;;;;;;2.60;1.20;;;14.20;1.00;;;;;;5051914;28;20221;-81
2022/11/11 12:59:18;;;;;;;2.78;1.05;;;14.20;1.00;;;;;;5051479;28;20206;-80
2022/11/11 13:02:06;;;;;;;2.03;0.95;;;14.20;1.00;;;;;;5060396;28;20182;-81
2022/11/11 13:04:48;;;;;;;1.10;0.90;;;13.90;1.00;;;;;;5044483;28;20563;-78
2022/11/11 13:07:32;;;;;;;1.98;1.10;;;14.20;1.00;;;;;;5045646;28;20566;-78
2022/11/11 13:10:09;;;;;;;1.63;1.08;;;14.20;1.00;;;;;;5045537;28;20201;-81
2022/11/11 13:12:43;;;;;;;1.27;1.17;;;14.20;1.00;;;;;;5059740;28;20670;-81
2022/11/11 13:15:20;;;;;;;1.20;1.10;;;14.20;1.00;;;;;;5047835;28;20210;-79
2022/11/11 13:17:46;;;;;;;2.13;1.35;;;14.30;1.00;;;;;;5064237;28;20186;-81
2022/11/11 13:20:26;;;;;;;2.28;1.10;;;14.20;1.00;;;;;;5050407;28;20583;-77
2022/11/11 13:22:52;;;;;;;1.50;0.98;;;14.10;1.00;;;;;;5049020;28;20565;-81
2022/11/11 13:25:23;;;;;;;1.52;1.02;;;14.00;1.00;;;;;;5050592;28;20198;-79
2022/11/11 13:27:57;;;;;;;1.48;1.02;;;14.10;1.00;;;;;;5048263;28;20938;-82
2022/11/11 13:30:22;;;;;;;2.28;1.13;;;14.20;1.00;;;;;;5050046;28;20200;-82
2022/11/11 13:33:13;;;;;;;2.00;0.90;;;14.10;1.00;;;;;;5065623;28;20193;-79
2022/11/11 13:35:48;;;;;;;2.05;1.00;;;14.10;1.00;;;;;;5050319;28;20221;-82
2022/11/11 13:38:46;;;;;;;2.53;1.10;;;14.10;1.00;;;;;;5049764;28;20182;-81
2022/11/11 13:41:19;;;;;;;2.03;1.02;;;14.10;1.00;;;;;;5050148;28;20200;-79
2022/11/11 13:43:48;;;;;;;1.83;0.90;;;14.10;1.00;;;;;;5065566;28;20182;-81
2022/11/11 13:46:36;;;;;;;2.65;1.10;;;14.00;1.00;;;;;;5052082;28;20276;-81
2022/11/11 13:49:06;;;;;;;1.60;1.48;;;14.00;1.00;;;;;;5050767;28;20739;-82
2022/11/11 13:51:43;;;;;;;2.88;1.13;;;14.10;1.00;;;;;;5050597;28;20212;-83
2022/11/11 13:54:26;;;;;;;2.00;1.10;;;13.60;1.00;;;;;;5046001;28;20186;-82
2022/11/11 13:56:53;;;;;;;2.33;1.30;;;14.00;1.00;;;;;;5048184;28;20197;-81
2022/11/11 13:59:36;;;;;;;1.77;0.90;;;13.80;1.00;;;;;;5048053;28;20210;-85
2022/11/11 14:02:25;;;;;;;2.85;1.42;;;14.00;1.00;;;;;;5047064;28;20189;-84
2022/11/11 14:05:07;;;;;;;1.52;1.27;;;14.00;1.00;;;;;;5046115;28;20316;-83
2022/11/11 14:07:46;;;;;;;3.78;1.20;;;14.00;1.00;;;;;;5046137;28;20170;-82
2022/11/11 14:10:18;;;;;;;5.75;1.20;;;14.10;1.00;;;;;;5047292;28;20671;-82
2022/11/11 14:12:50;;;;;;;1.25;0.95;;;14.00;1.00;;;;;;5045141;28;20187;-83
2022/11/11 14:15:34;;;;;;;3.30;1.00;;;14.00;1.00;;;;;;5045710;28;20210;-82
2022/11/11 14:18:18;;;;;;;1.10;0.98;;;13.90;1.00;;;;;;5045918;28;20221;-82
2022/11/11 14:20:47;;;;;;;1.85;1.40;;;13.90;1.00;;;;;;5050775;28;20182;-82
2022/11/11 14:23:25;;;;;;;3.80;1.48;;;13.90;1.00;;;;;;5049737;28;20325;-78
2022/11/11 14:26:19;;;;;;;1.77;1.20;;;13.80;1.00;;;;;;5051293;28;20201;-81